sensor_id;sensor_type;location;lat;lon;timestamp;temperature;humidity
20740;DHT22;10530;49.968;19.844;2023-06-14T00:01:58;10.60;99.90
20740;DHT22;10530;49.968;19.844;2023-06-14T00:07:01;10.70;99.90
20740;DHT22;10530;49.968;19.844;2023-06-14T00:12:05;10.80;99.90
20740;DHT22;10530;49.968;19.844;2023-06-14T00:17:09;10.90;99.90
20740;DHT22;10530;49.968;19.844;2023-06-14T00:22:12;10.80;99.90
20740;DHT22;10530;49.968;19.844;2023-06-14T00:27:15;10.70;99.90
20740;DHT22;10530;49.968;19.844;2023-06-14T00:32:18;10.80;99.90
20740;DHT22;10530;49.968;19.844;2023-06-14T00:37:21;10.80;99.90
20740;DHT22;10530;49.968;19.844;2023-06-14T00:42:26;10.80;99.90
20740;DHT22;10530;49.968;19.844;2023-06-14T00:47:28;10.80;99.90
20740;DHT22;10530;49.968;19.844;2023-06-14T00:52:31;10.90;99.90
20740;DHT22;10530;49.968;19.844;2023-06-14T00:57:35;11.00;99.90
20740;DHT22;10530;49.968;19.844;2023-06-14T01:02:41;11.00;99.90
20740;DHT22;10530;49.968;19.844;2023-06-14T01:13:21;10.50;99.90
20740;DHT22;10530;49.968;19.844;2023-06-14T01:18:28;10.60;99.90
20740;DHT22;10530;49.968;19.844;2023-06-14T01:23:33;10.60;99.90
20740;DHT22;10530;49.968;19.844;2023-06-14T01:28:36;10.60;99.90
20740;DHT22;10530;49.968;19.844;2023-06-14T01:33:39;10.50;99.90
20740;DHT22;10530;49.968;19.844;2023-06-14T01:38:43;10.50;99.90
20740;DHT22;10530;49.968;19.844;2023-06-14T01:43:48;10.50;99.90
20740;DHT22;10530;49.968;19.844;2023-06-14T01:48:51;10.60;99.90
20740;DHT22;10530;49.968;19.844;2023-06-14T01:53:54;10.60;99.90
20740;DHT22;10530;49.968;19.844;2023-06-14T01:58:57;10.60;99.90
20740;DHT22;10530;49.968;19.844;2023-06-14T02:04:00;10.50;99.90
20740;DHT22;10530;49.968;19.844;2023-06-14T02:09:03;10.60;99.90
20740;DHT22;10530;49.968;19.844;2023-06-14T02:14:06;10.60;99.90
20740;DHT22;10530;49.968;19.844;2023-06-14T02:19:09;10.70;99.90
20740;DHT22;10530;49.968;19.844;2023-06-14T02:24:13;10.70;99.90
20740;DHT22;10530;49.968;19.844;2023-06-14T02:29:17;10.80;99.90
20740;DHT22;10530;49.968;19.844;2023-06-14T02:34:19;10.80;99.90
20740;DHT22;10530;49.968;19.844;2023-06-14T02:39:24;10.80;99.90
20740;DHT22;10530;49.968;19.844;2023-06-14T02:44:27;10.80;99.90
20740;DHT22;10530;49.968;19.844;2023-06-14T02:49:30;10.80;99.90
20740;DHT22;10530;49.968;19.844;2023-06-14T02:54:33;10.90;99.90
20740;DHT22;10530;49.968;19.844;2023-06-14T02:59:36;11.00;99.90
20740;DHT22;10530;49.968;19.844;2023-06-14T03:04:40;11.00;99.90
20740;DHT22;10530;49.968;19.844;2023-06-14T03:09:49;11.00;99.90
20740;DHT22;10530;49.968;19.844;2023-06-14T03:14:52;11.00;99.90
20740;DHT22;10530;49.968;19.844;2023-06-14T03:19:58;11.00;99.90
20740;DHT22;10530;49.968;19.844;2023-06-14T03:25:00;11.00;99.90
20740;DHT22;10530;49.968;19.844;2023-06-14T03:30:07;11.00;99.90
20740;DHT22;10530;49.968;19.844;2023-06-14T03:35:11;11.00;99.90
20740;DHT22;10530;49.968;19.844;2023-06-14T03:40:22;11.00;99.90
20740;DHT22;10530;49.968;19.844;2023-06-14T03:45:28;11.10;99.90
20740;DHT22;10530;49.968;19.844;2023-06-14T03:50:33;11.10;99.90
20740;DHT22;10530;49.968;19.844;2023-06-14T03:55:35;10.90;99.90
20740;DHT22;10530;49.968;19.844;2023-06-14T04:01:01;10.70;99.90
20740;DHT22;10530;49.968;19.844;2023-06-14T04:06:06;10.70;99.90
20740;DHT22;10530;49.968;19.844;2023-06-14T04:11:09;10.70;99.90
20740;DHT22;10530;49.968;19.844;2023-06-14T04:16:11;10.80;99.90
20740;DHT22;10530;49.968;19.844;2023-06-14T04:21:14;10.70;99.90
20740;DHT22;10530;49.968;19.844;2023-06-14T04:26:17;10.70;99.90
20740;DHT22;10530;49.968;19.844;2023-06-14T04:31:26;10.70;99.90
20740;DHT22;10530;49.968;19.844;2023-06-14T04:36:28;10.70;99.90
20740;DHT22;10530;49.968;19.844;2023-06-14T04:41:32;10.70;99.90
20740;DHT22;10530;49.968;19.844;2023-06-14T04:46:36;10.80;99.90
20740;DHT22;10530;49.968;19.844;2023-06-14T04:51:58;10.80;99.90
20740;DHT22;10530;49.968;19.844;2023-06-14T04:57:06;10.90;99.90
20740;DHT22;10530;49.968;19.844;2023-06-14T05:02:10;10.90;99.90
20740;DHT22;10530;49.968;19.844;2023-06-14T05:07:14;11.00;99.90
20740;DHT22;10530;49.968;19.844;2023-06-14T05:12:17;11.10;99.90
20740;DHT22;10530;49.968;19.844;2023-06-14T05:17:24;11.10;99.90
20740;DHT22;10530;49.968;19.844;2023-06-14T05:22:27;11.00;99.90
20740;DHT22;10530;49.968;19.844;2023-06-14T05:27:29;11.20;99.90
20740;DHT22;10530;49.968;19.844;2023-06-14T05:32:32;11.30;99.90
20740;DHT22;10530;49.968;19.844;2023-06-14T05:37:35;11.40;99.90
20740;DHT22;10530;49.968;19.844;2023-06-14T05:42:38;11.50;99.90
20740;DHT22;10530;49.968;19.844;2023-06-14T05:47:41;11.50;99.90
20740;DHT22;10530;49.968;19.844;2023-06-14T05:52:44;11.70;99.90
20740;DHT22;10530;49.968;19.844;2023-06-14T05:57:47;11.80;99.90
20740;DHT22;10530;49.968;19.844;2023-06-14T06:02:50;12.00;99.90
20740;DHT22;10530;49.968;19.844;2023-06-14T06:07:53;12.20;99.90
20740;DHT22;10530;49.968;19.844;2023-06-14T06:12:56;12.40;99.90
20740;DHT22;10530;49.968;19.844;2023-06-14T06:17:59;12.40;99.90
20740;DHT22;10530;49.968;19.844;2023-06-14T06:23:02;12.60;99.90
20740;DHT22;10530;49.968;19.844;2023-06-14T06:28:05;12.50;99.90
20740;DHT22;10530;49.968;19.844;2023-06-14T06:33:08;12.70;99.90
20740;DHT22;10530;49.968;19.844;2023-06-14T06:38:11;12.70;99.90
20740;DHT22;10530;49.968;19.844;2023-06-14T06:43:14;12.80;99.90
20740;DHT22;10530;49.968;19.844;2023-06-14T06:48:22;12.70;99.90
20740;DHT22;10530;49.968;19.844;2023-06-14T06:53:25;12.60;99.90
20740;DHT22;10530;49.968;19.844;2023-06-14T06:58:41;12.70;99.90
20740;DHT22;10530;49.968;19.844;2023-06-14T07:03:44;12.70;99.90
20740;DHT22;10530;49.968;19.844;2023-06-14T07:08:47;12.70;99.90
20740;DHT22;10530;49.968;19.844;2023-06-14T07:13:50;12.80;99.90
20740;DHT22;10530;49.968;19.844;2023-06-14T07:18:53;12.80;99.90
20740;DHT22;10530;49.968;19.844;2023-06-14T07:23:56;12.70;99.90
20740;DHT22;10530;49.968;19.844;2023-06-14T07:28:59;12.80;99.90
20740;DHT22;10530;49.968;19.844;2023-06-14T07:34:02;12.80;99.90
20740;DHT22;10530;49.968;19.844;2023-06-14T07:39:06;12.90;99.90
20740;DHT22;10530;49.968;19.844;2023-06-14T07:44:09;12.90;99.90
20740;DHT22;10530;49.968;19.844;2023-06-14T07:49:13;12.90;99.90
20740;DHT22;10530;49.968;19.844;2023-06-14T07:54:17;13.00;99.90
20740;DHT22;10530;49.968;19.844;2023-06-14T07:59:20;13.00;99.90
20740;DHT22;10530;49.968;19.844;2023-06-14T08:04:22;13.00;99.90
20740;DHT22;10530;49.968;19.844;2023-06-14T08:09:27;13.10;99.90
20740;DHT22;10530;49.968;19.844;2023-06-14T08:14:31;13.20;99.90
20740;DHT22;10530;49.968;19.844;2023-06-14T08:19:34;13.20;99.90
20740;DHT22;10530;49.968;19.844;2023-06-14T08:24:37;13.10;99.90
20740;DHT22;10530;49.968;19.844;2023-06-14T08:29:40;13.30;99.90
20740;DHT22;10530;49.968;19.844;2023-06-14T08:34:44;13.40;99.90
20740;DHT22;10530;49.968;19.844;2023-06-14T08:40:29;13.40;99.90
20740;DHT22;10530;49.968;19.844;2023-06-14T08:45:30;13.50;99.90
20740;DHT22;10530;49.968;19.844;2023-06-14T08:50:34;13.70;99.90
20740;DHT22;10530;49.968;19.844;2023-06-14T08:55:39;13.90;99.90
20740;DHT22;10530;49.968;19.844;2023-06-14T09:00:45;14.00;99.90
20740;DHT22;10530;49.968;19.844;2023-06-14T09:05:48;14.10;99.90
20740;DHT22;10530;49.968;19.844;2023-06-14T09:10:52;14.40;99.90
20740;DHT22;10530;49.968;19.844;2023-06-14T09:15:55;14.60;99.90
20740;DHT22;10530;49.968;19.844;2023-06-14T09:20:59;15.10;99.90
20740;DHT22;10530;49.968;19.844;2023-06-14T09:26:12;15.70;99.90
20740;DHT22;10530;49.968;19.844;2023-06-14T09:31:17;16.50;99.90
20740;DHT22;10530;49.968;19.844;2023-06-14T09:36:22;15.90;99.90
20740;DHT22;10530;49.968;19.844;2023-06-14T09:41:41;15.50;99.90
20740;DHT22;10530;49.968;19.844;2023-06-14T09:46:45;15.40;99.90
20740;DHT22;10530;49.968;19.844;2023-06-14T09:51:51;15.30;99.90
20740;DHT22;10530;49.968;19.844;2023-06-14T09:56:56;15.60;99.90
20740;DHT22;10530;49.968;19.844;2023-06-14T10:02:00;15.60;99.90
20740;DHT22;10530;49.968;19.844;2023-06-14T10:07:07;15.50;99.90
20740;DHT22;10530;49.968;19.844;2023-06-14T10:12:11;15.20;99.90
20740;DHT22;10530;49.968;19.844;2023-06-14T10:17:27;15.10;99.90
20740;DHT22;10530;49.968;19.844;2023-06-14T10:22:41;15.10;99.90
20740;DHT22;10530;49.968;19.844;2023-06-14T10:27:45;15.20;99.90
20740;DHT22;10530;49.968;19.844;2023-06-14T10:33:08;15.40;99.90
20740;DHT22;10530;49.968;19.844;2023-06-14T10:38:12;15.50;99.90
20740;DHT22;10530;49.968;19.844;2023-06-14T10:43:22;15.90;99.90
20740;DHT22;10530;49.968;19.844;2023-06-14T10:48:31;16.10;99.90
20740;DHT22;10530;49.968;19.844;2023-06-14T10:53:40;16.10;99.90
20740;DHT22;10530;49.968;19.844;2023-06-14T10:58:43;16.30;99.90
20740;DHT22;10530;49.968;19.844;2023-06-14T11:03:52;16.90;99.90
20740;DHT22;10530;49.968;19.844;2023-06-14T11:14:08;21.10;99.90
20740;DHT22;10530;49.968;19.844;2023-06-14T11:19:10;20.70;99.90
20740;DHT22;10530;49.968;19.844;2023-06-14T11:24:14;19.80;99.90
20740;DHT22;10530;49.968;19.844;2023-06-14T11:29:17;21.00;99.90
20740;DHT22;10530;49.968;19.844;2023-06-14T11:34:22;22.00;99.90
20740;DHT22;10530;49.968;19.844;2023-06-14T11:39:26;21.40;99.90
20740;DHT22;10530;49.968;19.844;2023-06-14T11:44:31;22.10;99.90
20740;DHT22;10530;49.968;19.844;2023-06-14T11:49:36;22.30;99.90
20740;DHT22;10530;49.968;19.844;2023-06-14T11:54:39;22.30;99.90
20740;DHT22;10530;49.968;19.844;2023-06-14T11:59:45;22.00;99.90
20740;DHT22;10530;49.968;19.844;2023-06-14T12:04:49;21.60;99.90
20740;DHT22;10530;49.968;19.844;2023-06-14T12:15:03;21.40;99.90
20740;DHT22;10530;49.968;19.844;2023-06-14T12:20:12;21.60;99.90
20740;DHT22;10530;49.968;19.844;2023-06-14T12:25:28;21.50;99.90
20740;DHT22;10530;49.968;19.844;2023-06-14T12:30:34;20.60;99.90
20740;DHT22;10530;49.968;19.844;2023-06-14T12:35:37;21.90;99.90
20740;DHT22;10530;49.968;19.844;2023-06-14T12:40:40;20.80;99.90
20740;DHT22;10530;49.968;19.844;2023-06-14T12:45:44;20.80;99.90
20740;DHT22;10530;49.968;19.844;2023-06-14T12:50:47;22.20;99.90
20740;DHT22;10530;49.968;19.844;2023-06-14T12:55:50;21.10;99.90
20740;DHT22;10530;49.968;19.844;2023-06-14T13:00:53;21.60;99.90
20740;DHT22;10530;49.968;19.844;2023-06-14T13:05:56;21.90;99.90
20740;DHT22;10530;49.968;19.844;2023-06-14T13:10:59;21.80;99.90
20740;DHT22;10530;49.968;19.844;2023-06-14T13:16:03;23.20;99.90
20740;DHT22;10530;49.968;19.844;2023-06-14T13:21:05;23.70;93.40
20740;DHT22;10530;49.968;19.844;2023-06-14T13:26:08;21.90;94.80
20740;DHT22;10530;49.968;19.844;2023-06-14T13:31:12;23.70;95.00
20740;DHT22;10530;49.968;19.844;2023-06-14T13:36:15;23.30;90.80
20740;DHT22;10530;49.968;19.844;2023-06-14T13:41:18;21.30;96.70
20740;DHT22;10530;49.968;19.844;2023-06-14T13:46:21;20.60;99.90
20740;DHT22;10530;49.968;19.844;2023-06-14T13:51:24;21.60;98.20
20740;DHT22;10530;49.968;19.844;2023-06-14T13:56:29;22.60;99.90
20740;DHT22;10530;49.968;19.844;2023-06-14T14:01:32;22.90;90.30
20740;DHT22;10530;49.968;19.844;2023-06-14T14:06:35;23.40;77.00
20740;DHT22;10530;49.968;19.844;2023-06-14T14:11:38;22.20;84.40
20740;DHT22;10530;49.968;19.844;2023-06-14T14:16:42;21.60;91.20
20740;DHT22;10530;49.968;19.844;2023-06-14T14:21:45;21.10;94.70
20740;DHT22;10530;49.968;19.844;2023-06-14T14:26:48;20.60;98.90
20740;DHT22;10530;49.968;19.844;2023-06-14T14:31:52;21.40;94.30
20740;DHT22;10530;49.968;19.844;2023-06-14T14:36:55;20.90;98.50
20740;DHT22;10530;49.968;19.844;2023-06-14T14:41:58;20.40;99.80
20740;DHT22;10530;49.968;19.844;2023-06-14T14:47:02;20.10;99.90
20740;DHT22;10530;49.968;19.844;2023-06-14T14:52:05;20.30;99.30
20740;DHT22;10530;49.968;19.844;2023-06-14T14:57:24;20.10;99.90
20740;DHT22;10530;49.968;19.844;2023-06-14T15:02:27;21.80;98.60
20740;DHT22;10530;49.968;19.844;2023-06-14T15:07:31;21.70;94.90
20740;DHT22;10530;49.968;19.844;2023-06-14T15:12:34;20.20;98.70
20740;DHT22;10530;49.968;19.844;2023-06-14T15:17:38;19.50;99.90
20740;DHT22;10530;49.968;19.844;2023-06-14T15:22:41;19.20;99.90
20740;DHT22;10530;49.968;19.844;2023-06-14T15:27:44;18.70;99.90
20740;DHT22;10530;49.968;19.844;2023-06-14T15:32:47;19.40;99.90
20740;DHT22;10530;49.968;19.844;2023-06-14T15:37:50;20.30;99.90
20740;DHT22;10530;49.968;19.844;2023-06-14T15:42:53;20.00;99.90
20740;DHT22;10530;49.968;19.844;2023-06-14T15:47:57;20.40;99.90
20740;DHT22;10530;49.968;19.844;2023-06-14T15:53:00;21.10;99.90
20740;DHT22;10530;49.968;19.844;2023-06-14T15:58:03;21.60;97.90
20740;DHT22;10530;49.968;19.844;2023-06-14T16:03:06;22.00;94.10
20740;DHT22;10530;49.968;19.844;2023-06-14T16:08:09;22.00;96.30
20740;DHT22;10530;49.968;19.844;2023-06-14T16:13:12;21.40;98.00
20740;DHT22;10530;49.968;19.844;2023-06-14T16:18:15;21.30;99.90
20740;DHT22;10530;49.968;19.844;2023-06-14T16:23:18;21.10;99.90
20740;DHT22;10530;49.968;19.844;2023-06-14T16:28:21;21.20;98.10
20740;DHT22;10530;49.968;19.844;2023-06-14T16:33:23;21.40;97.10
20740;DHT22;10530;49.968;19.844;2023-06-14T16:38:26;20.40;98.60
20740;DHT22;10530;49.968;19.844;2023-06-14T16:43:31;20.50;99.40
20740;DHT22;10530;49.968;19.844;2023-06-14T16:48:34;20.60;99.90
20740;DHT22;10530;49.968;19.844;2023-06-14T16:53:37;20.40;99.90
20740;DHT22;10530;49.968;19.844;2023-06-14T16:58:40;20.30;99.90
20740;DHT22;10530;49.968;19.844;2023-06-14T17:03:43;20.20;99.90
20740;DHT22;10530;49.968;19.844;2023-06-14T17:08:46;20.00;99.90
20740;DHT22;10530;49.968;19.844;2023-06-14T17:13:51;19.70;99.90
20740;DHT22;10530;49.968;19.844;2023-06-14T17:18:54;19.70;99.90
20740;DHT22;10530;49.968;19.844;2023-06-14T17:23:57;19.60;99.90
20740;DHT22;10530;49.968;19.844;2023-06-14T17:29:00;19.40;99.90
20740;DHT22;10530;49.968;19.844;2023-06-14T17:34:03;19.50;99.90
20740;DHT22;10530;49.968;19.844;2023-06-14T17:39:06;19.00;99.90
20740;DHT22;10530;49.968;19.844;2023-06-14T17:44:11;18.40;99.90
20740;DHT22;10530;49.968;19.844;2023-06-14T17:49:14;18.40;99.90
20740;DHT22;10530;49.968;19.844;2023-06-14T17:54:17;18.30;99.90
20740;DHT22;10530;49.968;19.844;2023-06-14T17:59:20;18.10;99.90
20740;DHT22;10530;49.968;19.844;2023-06-14T18:04:23;17.80;99.90
20740;DHT22;10530;49.968;19.844;2023-06-14T18:09:27;17.40;99.90
20740;DHT22;10530;49.968;19.844;2023-06-14T18:14:30;17.30;99.90
20740;DHT22;10530;49.968;19.844;2023-06-14T18:19:33;17.10;99.90
20740;DHT22;10530;49.968;19.844;2023-06-14T18:24:36;16.80;99.90
20740;DHT22;10530;49.968;19.844;2023-06-14T18:29:39;16.50;99.90
20740;DHT22;10530;49.968;19.844;2023-06-14T18:34:42;16.30;99.90
20740;DHT22;10530;49.968;19.844;2023-06-14T18:39:45;16.20;99.90
20740;DHT22;10530;49.968;19.844;2023-06-14T18:44:48;16.00;99.90
20740;DHT22;10530;49.968;19.844;2023-06-14T18:49:51;15.80;99.90
20740;DHT22;10530;49.968;19.844;2023-06-14T18:54:54;15.60;99.90
20740;DHT22;10530;49.968;19.844;2023-06-14T18:59:57;15.40;99.90
20740;DHT22;10530;49.968;19.844;2023-06-14T19:05:00;15.30;99.90
20740;DHT22;10530;49.968;19.844;2023-06-14T19:10:07;14.90;99.90
20740;DHT22;10530;49.968;19.844;2023-06-14T19:15:10;14.60;99.90
20740;DHT22;10530;49.968;19.844;2023-06-14T19:20:13;14.40;99.90
20740;DHT22;10530;49.968;19.844;2023-06-14T19:25:16;14.20;99.90
20740;DHT22;10530;49.968;19.844;2023-06-14T19:30:20;14.10;99.90
20740;DHT22;10530;49.968;19.844;2023-06-14T19:35:23;13.90;99.90
20740;DHT22;10530;49.968;19.844;2023-06-14T19:40:27;13.60;99.90
20740;DHT22;10530;49.968;19.844;2023-06-14T19:45:30;13.40;99.90
20740;DHT22;10530;49.968;19.844;2023-06-14T19:50:35;13.20;99.90
20740;DHT22;10530;49.968;19.844;2023-06-14T19:55:38;13.10;99.90
20740;DHT22;10530;49.968;19.844;2023-06-14T20:00:41;12.90;99.90
20740;DHT22;10530;49.968;19.844;2023-06-14T20:05:43;12.80;99.90
20740;DHT22;10530;49.968;19.844;2023-06-14T20:10:46;12.80;99.90
20740;DHT22;10530;49.968;19.844;2023-06-14T20:15:49;12.60;99.90
20740;DHT22;10530;49.968;19.844;2023-06-14T20:20:52;12.60;99.90
20740;DHT22;10530;49.968;19.844;2023-06-14T20:25:57;12.40;99.90
20740;DHT22;10530;49.968;19.844;2023-06-14T20:31:00;12.40;99.90
20740;DHT22;10530;49.968;19.844;2023-06-14T20:36:03;12.30;99.90
20740;DHT22;10530;49.968;19.844;2023-06-14T20:41:06;12.20;99.90
20740;DHT22;10530;49.968;19.844;2023-06-14T20:46:09;11.90;99.90
20740;DHT22;10530;49.968;19.844;2023-06-14T20:51:12;11.80;99.90
20740;DHT22;10530;49.968;19.844;2023-06-14T20:56:15;11.60;99.90
20740;DHT22;10530;49.968;19.844;2023-06-14T21:01:17;11.60;99.90
20740;DHT22;10530;49.968;19.844;2023-06-14T21:06:20;11.50;99.90
20740;DHT22;10530;49.968;19.844;2023-06-14T21:11:23;11.40;99.90
20740;DHT22;10530;49.968;19.844;2023-06-14T21:16:26;11.20;99.90
20740;DHT22;10530;49.968;19.844;2023-06-14T21:21:29;11.20;99.90
20740;DHT22;10530;49.968;19.844;2023-06-14T21:26:32;11.10;99.90
20740;DHT22;10530;49.968;19.844;2023-06-14T21:31:36;11.10;99.90
20740;DHT22;10530;49.968;19.844;2023-06-14T21:36:39;11.00;99.90
20740;DHT22;10530;49.968;19.844;2023-06-14T21:41:42;10.90;99.90
20740;DHT22;10530;49.968;19.844;2023-06-14T21:46:44;10.80;99.90
20740;DHT22;10530;49.968;19.844;2023-06-14T21:51:48;10.90;99.90
20740;DHT22;10530;49.968;19.844;2023-06-14T21:56:50;10.90;99.90
20740;DHT22;10530;49.968;19.844;2023-06-14T22:01:53;10.80;99.90
20740;DHT22;10530;49.968;19.844;2023-06-14T22:06:56;10.70;99.90
20740;DHT22;10530;49.968;19.844;2023-06-14T22:11:59;10.70;99.90
20740;DHT22;10530;49.968;19.844;2023-06-14T22:17:04;10.60;99.90
20740;DHT22;10530;49.968;19.844;2023-06-14T22:22:08;10.50;99.90
20740;DHT22;10530;49.968;19.844;2023-06-14T22:27:11;10.30;99.90
20740;DHT22;10530;49.968;19.844;2023-06-14T22:32:15;10.30;99.90
20740;DHT22;10530;49.968;19.844;2023-06-14T22:37:18;10.30;99.90
20740;DHT22;10530;49.968;19.844;2023-06-14T22:42:21;10.20;99.90
20740;DHT22;10530;49.968;19.844;2023-06-14T22:47:25;10.00;99.90
20740;DHT22;10530;49.968;19.844;2023-06-14T22:52:29;10.00;99.90
20740;DHT22;10530;49.968;19.844;2023-06-14T22:57:41;9.90;99.90
20740;DHT22;10530;49.968;19.844;2023-06-14T23:02:48;9.90;99.90
20740;DHT22;10530;49.968;19.844;2023-06-14T23:07:50;9.80;99.90
20740;DHT22;10530;49.968;19.844;2023-06-14T23:12:54;10.00;99.90
20740;DHT22;10530;49.968;19.844;2023-06-14T23:17:57;9.90;99.90
20740;DHT22;10530;49.968;19.844;2023-06-14T23:23:01;9.80;99.90
20740;DHT22;10530;49.968;19.844;2023-06-14T23:28:05;9.80;99.90
20740;DHT22;10530;49.968;19.844;2023-06-14T23:33:09;9.90;99.90
20740;DHT22;10530;49.968;19.844;2023-06-14T23:38:12;9.70;99.90
20740;DHT22;10530;49.968;19.844;2023-06-14T23:43:15;9.80;99.90
20740;DHT22;10530;49.968;19.844;2023-06-14T23:48:25;9.70;99.90
20740;DHT22;10530;49.968;19.844;2023-06-14T23:53:28;9.50;99.90
20740;DHT22;10530;49.968;19.844;2023-06-14T23:58:31;9.60;99.90
